Time;durP1;ratioP1;P1;durP2;ratioP2;P2;SDS_P1;SDS_P2;PMS_P1;PMS_P2;Temp;Humidity;BMP_temperature;BMP_pressure;BME280_temperature;BME280_humidity;BME280_pressure;Samples;Min_cycle;Max_cycle;Signal;HPM_P1;HPM_P2
2021/09/10 00:00:57;;;;;;;37.43;25.17;;;;;;;;;;5023193;28;20195;-62
2021/09/10 00:03:23;;;;;;;;;;;;;;;;;;5019642;28;20050;-62
2021/09/10 00:05:50;;;;;;;43.90;27.88;;;;;;;;;;5021728;28;19931;-62
2021/09/10 00:08:16;;;;;;;39.72;26.23;;;;;;;;;;5022046;28;20200;-62
2021/09/10 00:10:43;;;;;;;36.07;23.03;;;;;;;;;;5023296;28;20130;-62
2021/09/10 00:13:09;;;;;;;32.28;23.13;;;;;;;;;;5022318;28;20180;-62
2021/09/10 00:15:37;;;;;;;34.13;23.67;;;;;;;;;;5018989;28;20088;-62
2021/09/10 00:18:04;;;;;;;41.53;26.50;;;;;;;;;;5022848;28;20677;-62
2021/09/10 00:20:30;;;;;;;32.05;21.83;;;;;;;;;;5020071;28;20077;-62
2021/09/10 00:22:57;;;;;;;36.80;24.67;;;;;;;;;;5016438;28;20073;-62
2021/09/10 00:25:23;;;;;;;35.70;25.77;;;;;;;;;;5020643;28;20191;-62
2021/09/10 00:27:50;;;;;;;54.92;31.90;;;;;;;;;;5025483;28;20535;-62
2021/09/10 00:30:16;;;;;;;50.92;30.35;;;;;;;;;;5021422;28;20596;-62
2021/09/10 00:32:43;;;;;;;43.30;29.10;;;;;;;;;;5020701;28;20125;-62
2021/09/10 00:35:11;;;;;;;45.85;28.92;;;;;;;;;;5019844;28;20141;-63
2021/09/10 00:37:37;;;;;;;;;;;;;;;;;;5022631;28;20049;-62
2021/09/10 00:40:04;;;;;;;53.67;30.70;;;;;;;;;;5025289;28;20224;-62
2021/09/10 00:42:31;;;;;;;47.60;29.17;;;;;;;;;;5024951;28;20579;-63
2021/09/10 00:44:57;;;;;;;49.47;29.80;;;;;;;;;;5019141;28;20099;-62
2021/09/10 00:47:25;;;;;;;46.83;28.83;;;;;;;;;;5026155;28;20132;-62
2021/09/10 00:49:52;;;;;;;46.10;30.00;;;;;;;;;;5019469;28;20528;-62
2021/09/10 00:52:18;;;;;;;40.92;25.70;;;;;;;;;;5023427;28;20140;-62
2021/09/10 00:54:45;;;;;;;39.03;25.23;;;;;;;;;;5020524;28;20129;-62
2021/09/10 00:57:12;;;;;;;35.65;24.20;;;;;;;;;;5022661;28;20128;-62
2021/09/10 00:59:38;;;;;;;31.67;20.58;;;;;;;;;;5019437;28;20164;-62
2021/09/10 01:02:05;;;;;;;45.55;27.63;;;;;;;;;;5021535;28;20149;-62
2021/09/10 01:04:32;;;;;;;34.78;25.35;;;;;;;;;;5023480;28;20425;-62
2021/09/10 01:06:59;;;;;;;28.98;21.10;;;;;;;;;;5022025;28;20072;-62
2021/09/10 01:09:26;;;;;;;37.35;24.00;;;;;;;;;;5022789;28;20126;-62
2021/09/10 01:11:53;;;;;;;46.97;28.77;;;;;;;;;;5024928;28;20125;-62
2021/09/10 01:14:19;;;;;;;41.10;27.13;;;;;;;;;;5025410;28;20089;-62
2021/09/10 01:16:46;;;;;;;45.78;28.25;;;;;;;;;;5019764;28;20096;-62
2021/09/10 01:19:21;;;;;;;48.70;29.23;;;;;;;;;;5014655;28;20121;-62
2021/09/10 01:21:52;;;;;;;45.35;28.48;;;;;;;;;;5022695;28;20169;-62
2021/09/10 01:24:19;;;;;;;44.70;27.75;;;;;;;;;;5018952;28;20149;-62
2021/09/10 01:26:46;;;;;;;50.03;29.58;;;;;;;;;;5022746;28;20084;-62
2021/09/10 01:29:12;;;;;;;47.70;29.83;;;;;;;;;;5020856;28;20486;-62
2021/09/10 01:31:39;;;;;;;41.53;26.73;;;;;;;;;;5019774;28;20085;-62
2021/09/10 01:34:05;;;;;;;30.45;20.45;;;;;;;;;;5019863;28;20081;-62
2021/09/10 01:36:32;;;;;;;50.73;28.67;;;;;;;;;;5020400;28;20095;-62
2021/09/10 01:38:58;;;;;;;47.05;30.10;;;;;;;;;;5025833;28;20423;-62
2021/09/10 01:41:25;;;;;;;45.78;29.58;;;;;;;;;;5022885;28;20573;-62
2021/09/10 01:43:52;;;;;;;57.53;32.38;;;;;;;;;;5021691;28;20589;-62
2021/09/10 01:46:18;;;;;;;38.00;24.77;;;;;;;;;;5021239;28;20111;-62
2021/09/10 01:48:45;;;;;;;37.92;23.98;;;;;;;;;;5014694;28;20050;-62
2021/09/10 01:51:11;;;;;;;30.98;20.25;;;;;;;;;;5021263;28;20085;-62
2021/09/10 01:53:38;;;;;;;34.45;23.45;;;;;;;;;;5021996;28;20072;-62
2021/09/10 01:56:04;;;;;;;40.65;25.48;;;;;;;;;;5022192;28;20515;-62
2021/09/10 01:58:31;;;;;;;38.55;24.73;;;;;;;;;;5020452;28;20545;-62
2021/09/10 02:00:59;;;;;;;48.55;29.70;;;;;;;;;;5024259;28;20088;-62
2021/09/10 02:03:26;;;;;;;49.58;29.38;;;;;;;;;;5019657;28;20115;-62
2021/09/10 02:05:54;;;;;;;47.60;28.67;;;;;;;;;;5021898;28;20061;-62
2021/09/10 02:08:21;;;;;;;42.40;26.05;;;;;;;;;;5023066;28;20137;-62
2021/09/10 02:10:47;;;;;;;38.78;25.02;;;;;;;;;;5024302;28;20128;-63
2021/09/10 02:13:16;;;;;;;44.65;26.77;;;;;;;;;;5016205;28;20141;-62
2021/09/10 02:15:42;;;;;;;44.95;27.80;;;;;;;;;;5021022;28;20136;-62
2021/09/10 02:18:08;;;;;;;43.15;26.77;;;;;;;;;;5018876;28;20045;-62
2021/09/10 02:20:35;;;;;;;40.88;26.80;;;;;;;;;;5020532;28;20045;-62
2021/09/10 02:23:01;;;;;;;48.65;29.75;;;;;;;;;;5027680;28;20124;-62
2021/09/10 02:25:28;;;;;;;40.22;26.15;;;;;;;;;;5023600;28;20133;-62
2021/09/10 02:27:54;;;;;;;45.85;27.77;;;;;;;;;;5022217;28;20124;-62
2021/09/10 02:30:21;;;;;;;45.72;28.48;;;;;;;;;;5028487;28;20100;-62
2021/09/10 02:32:47;;;;;;;44.13;28.33;;;;;;;;;;5030741;28;20132;-62
2021/09/10 02:35:14;;;;;;;41.27;26.60;;;;;;;;;;5027825;28;20096;-62
2021/09/10 02:37:41;;;;;;;42.65;27.00;;;;;;;;;;5025262;28;20876;-62
2021/09/10 02:40:07;;;;;;;34.65;22.85;;;;;;;;;;5023132;28;20080;-62
2021/09/10 02:42:34;;;;;;;37.58;23.98;;;;;;;;;;5023610;28;20084;-62
2021/09/10 02:45:02;;;;;;;34.75;23.40;;;;;;;;;;5028055;28;20141;-62
2021/09/10 02:47:30;;;;;;;47.83;29.85;;;;;;;;;;5024353;28;20489;-62
2021/09/10 02:49:57;;;;;;;53.65;30.65;;;;;;;;;;5022637;28;20088;-62
2021/09/10 02:52:26;;;;;;;39.13;25.00;;;;;;;;;;5010265;28;20124;-62
2021/09/10 02:54:53;;;;;;;35.00;24.75;;;;;;;;;;5023323;28;20060;-62
2021/09/10 02:57:20;;;;;;;45.58;28.15;;;;;;;;;;5023472;28;20142;-62
2021/09/10 02:59:46;;;;;;;45.40;28.88;;;;;;;;;;5026170;28;20136;-62
2021/09/10 03:02:12;;;;;;;48.78;30.52;;;;;;;;;;5024841;28;20081;-62
2021/09/10 03:04:44;;;;;;;60.42;32.47;;;;;;;;;;5024874;28;20053;-62
2021/09/10 03:07:11;;;;;;;56.47;32.13;;;;;;;;;;5022605;28;20136;-62
2021/09/10 03:09:38;;;;;;;53.72;31.90;;;;;;;;;;5025225;28;20088;-62
2021/09/10 03:12:05;;;;;;;49.35;30.27;;;;;;;;;;5023699;28;20501;-63
2021/09/10 03:14:31;;;;;;;59.40;30.90;;;;;;;;;;5019476;28;20096;-62
2021/09/10 03:16:58;;;;;;;55.10;30.45;;;;;;;;;;5018461;28;20128;-62
2021/09/10 03:19:25;;;;;;;45.53;29.63;;;;;;;;;;5023077;28;20104;-63
2021/09/10 03:21:52;;;;;;;41.95;26.35;;;;;;;;;;5021914;28;20068;-62
2021/09/10 03:24:18;;;;;;;47.35;27.00;;;;;;;;;;5022369;28;20069;-62
2021/09/10 03:26:45;;;;;;;42.37;28.80;;;;;;;;;;5021701;28;20556;-62
2021/09/10 03:29:12;;;;;;;41.58;26.67;;;;;;;;;;5025114;28;20335;-62
2021/09/10 03:31:39;;;;;;;47.83;28.45;;;;;;;;;;5023998;28;20085;-62
2021/09/10 03:34:06;;;;;;;47.28;29.63;;;;;;;;;;5021591;28;20046;-62
2021/09/10 03:36:34;;;;;;;41.03;27.25;;;;;;;;;;5024843;28;20096;-62
2021/09/10 03:39:01;;;;;;;42.67;25.75;;;;;;;;;;5019779;28;20584;-62
2021/09/10 03:41:27;;;;;;;48.97;28.70;;;;;;;;;;5023740;28;20080;-62
2021/09/10 03:43:54;;;;;;;48.97;28.35;;;;;;;;;;5020322;28;20137;-61
2021/09/10 03:46:21;;;;;;;40.35;26.55;;;;;;;;;;5019314;28;20168;-62
2021/09/10 03:48:48;;;;;;;45.90;27.52;;;;;;;;;;5018698;28;20125;-62
2021/09/10 03:51:14;;;;;;;34.60;24.30;;;;;;;;;;5023702;28;20481;-62
2021/09/10 03:53:41;;;;;;;31.33;22.13;;;;;;;;;;5027883;28;20095;-62
2021/09/10 03:56:08;;;;;;;37.87;23.07;;;;;;;;;;5021309;28;20104;-62
2021/09/10 03:58:34;;;;;;;52.83;30.38;;;;;;;;;;5020748;28;20085;-62
2021/09/10 04:01:01;;;;;;;47.17;27.35;;;;;;;;;;5019460;28;20136;-62
2021/09/10 04:03:28;;;;;;;34.75;23.83;;;;;;;;;;5022238;28;20064;-62
2021/09/10 04:05:55;;;;;;;42.80;27.40;;;;;;;;;;5018648;28;20133;-62
2021/09/10 04:08:22;;;;;;;38.03;24.75;;;;;;;;;;5021303;28;20045;-62
2021/09/10 04:10:48;;;;;;;37.03;25.07;;;;;;;;;;5024768;28;20132;-62
2021/09/10 04:13:16;;;;;;;39.38;23.65;;;;;;;;;;5019977;28;20483;-62
2021/09/10 04:15:42;;;;;;;45.22;27.30;;;;;;;;;;5024591;28;20045;-62
2021/09/10 04:18:09;;;;;;;41.47;27.23;;;;;;;;;;5023743;28;20048;-62
2021/09/10 04:20:36;;;;;;;36.58;24.52;;;;;;;;;;5023230;28;20038;-62
2021/09/10 04:23:03;;;;;;;40.15;26.27;;;;;;;;;;5026613;28;20076;-62
2021/09/10 04:25:34;;;;;;;40.35;25.40;;;;;;;;;;5022116;28;20045;-62
2021/09/10 04:28:00;;;;;;;34.58;22.13;;;;;;;;;;5020239;28;20111;-62
2021/09/10 04:30:26;;;;;;;37.42;24.08;;;;;;;;;;5022188;28;20088;-62
2021/09/10 04:32:53;;;;;;;39.25;25.13;;;;;;;;;;5016383;28;20085;-62
2021/09/10 04:35:20;;;;;;;44.35;29.27;;;;;;;;;;5016393;28;20085;-62
2021/09/10 04:37:46;;;;;;;45.15;27.45;;;;;;;;;;5022692;28;20080;-61
2021/09/10 04:40:13;;;;;;;37.13;23.75;;;;;;;;;;5020716;28;20038;-62
2021/09/10 04:42:42;;;;;;;41.50;26.33;;;;;;;;;;5024792;28;20065;-62
2021/09/10 04:45:08;;;;;;;34.05;23.10;;;;;;;;;;5022244;28;20046;-63
2021/09/10 04:47:35;;;;;;;43.85;27.73;;;;;;;;;;5020945;28;20072;-62
2021/09/10 04:50:02;;;;;;;46.25;28.17;;;;;;;;;;5003937;28;20077;-62
2021/09/10 04:52:28;;;;;;;40.80;25.95;;;;;;;;;;5020598;28;20132;-62
2021/09/10 04:54:55;;;;;;;40.03;24.80;;;;;;;;;;5028469;28;20501;-62
2021/09/10 04:57:22;;;;;;;48.70;27.27;;;;;;;;;;5019099;28;20419;-62
2021/09/10 04:59:48;;;;;;;47.30;27.25;;;;;;;;;;5020560;28;20054;-62
2021/09/10 05:02:15;;;;;;;45.78;28.48;;;;;;;;;;5020831;28;20057;-62
2021/09/10 05:04:42;;;;;;;42.35;27.20;;;;;;;;;;5021100;28;20048;-62
2021/09/10 05:07:08;;;;;;;42.17;26.38;;;;;;;;;;5015701;28;20144;-62
2021/09/10 05:09:35;;;;;;;45.10;25.80;;;;;;;;;;5023841;28;20041;-62
2021/09/10 05:12:01;;;;;;;43.13;26.63;;;;;;;;;;5017069;28;20125;-62
2021/09/10 05:14:28;;;;;;;35.92;24.85;;;;;;;;;;5016920;28;20136;-62
2021/09/10 05:16:55;;;;;;;34.58;24.17;;;;;;;;;;5026990;28;20573;-62
2021/09/10 05:19:21;;;;;;;38.80;24.77;;;;;;;;;;5016812;28;20120;-62
2021/09/10 05:21:48;;;;;;;36.63;23.27;;;;;;;;;;5022985;28;20046;-62
2021/09/10 05:24:14;;;;;;;42.37;28.17;;;;;;;;;;5025592;28;20144;-62
2021/09/10 05:26:41;;;;;;;38.42;23.92;;;;;;;;;;5021350;28;20133;-62
2021/09/10 05:29:08;;;;;;;24.55;17.75;;;;;;;;;;5021852;28;20501;-62
2021/09/10 05:31:34;;;;;;;25.98;18.90;;;;;;;;;;5000396;28;20137;-62
2021/09/10 05:34:01;;;;;;;25.45;19.02;;;;;;;;;;5021137;28;20107;-62
2021/09/10 05:36:27;;;;;;;32.25;21.73;;;;;;;;;;5020926;28;20557;-62
2021/09/10 05:38:54;;;;;;;29.35;20.27;;;;;;;;;;5019831;28;20662;-62
2021/09/10 05:41:20;;;;;;;28.38;20.48;;;;;;;;;;5013797;28;20493;-62
2021/09/10 05:43:47;;;;;;;23.70;16.85;;;;;;;;;;5022002;28;20146;-62
2021/09/10 05:46:13;;;;;;;20.13;14.90;;;;;;;;;;5017372;28;20137;-62
2021/09/10 05:48:40;;;;;;;20.48;14.07;;;;;;;;;;5028249;28;20433;-62
2021/09/10 05:51:11;;;;;;;17.10;14.73;;;;;;;;;;5023732;28;20045;-62
2021/09/10 05:53:38;;;;;;;32.00;21.98;;;;;;;;;;5017032;28;20089;-62
2021/09/10 05:56:05;;;;;;;;;;;;;;;;;;5014326;28;20132;-62
2021/09/10 05:58:32;;;;;;;26.40;18.23;;;;;;;;;;5023910;28;19928;-62
2021/09/10 06:00:58;;;;;;;27.37;17.70;;;;;;;;;;5023163;28;20089;-62
2021/09/10 06:03:25;;;;;;;31.40;21.38;;;;;;;;;;5025371;28;20045;-62
2021/09/10 06:05:52;;;;;;;25.52;17.80;;;;;;;;;;5017352;28;20417;-62
2021/09/10 06:08:19;;;;;;;20.20;16.50;;;;;;;;;;5018661;28;20693;-63
2021/09/10 06:10:46;;;;;;;30.85;20.33;;;;;;;;;;5029603;28;20076;-62
2021/09/10 06:13:16;;;;;;;30.98;20.88;;;;;;;;;;5021123;28;20049;-62
2021/09/10 06:15:43;;;;;;;29.45;20.95;;;;;;;;;;5021727;28;20050;-62
2021/09/10 06:18:10;;;;;;;28.30;20.90;;;;;;;;;;5028949;28;20080;-62
2021/09/10 06:20:37;;;;;;;25.80;18.67;;;;;;;;;;5021843;28;20134;-62
2021/09/10 06:23:03;;;;;;;28.98;20.75;;;;;;;;;;5014802;28;20157;-62
2021/09/10 06:25:30;;;;;;;34.97;22.00;;;;;;;;;;5019425;28;20631;-62
2021/09/10 06:27:56;;;;;;;39.70;26.42;;;;;;;;;;5022383;28;20137;-62
2021/09/10 06:30:23;;;;;;;39.83;26.43;;;;;;;;;;5018496;28;20493;-62
2021/09/10 06:32:50;;;;;;;35.30;25.35;;;;;;;;;;5022384;28;20401;-62
2021/09/10 06:35:16;;;;;;;38.05;23.83;;;;;;;;;;5018835;28;20129;-62
2021/09/10 06:37:43;;;;;;;34.78;24.00;;;;;;;;;;5027490;28;20304;-62
2021/09/10 06:40:10;;;;;;;33.95;23.98;;;;;;;;;;5029408;28;20080;-62
2021/09/10 06:42:36;;;;;;;31.77;23.23;;;;;;;;;;5022500;28;20124;-62
2021/09/10 06:45:03;;;;;;;27.25;20.65;;;;;;;;;;5029904;28;20136;-62
2021/09/10 06:47:29;;;;;;;26.90;20.90;;;;;;;;;;5028532;28;20490;-62
2021/09/10 06:49:56;;;;;;;28.83;20.73;;;;;;;;;;5015635;28;20088;-62
2021/09/10 06:52:22;;;;;;;29.67;20.27;;;;;;;;;;5022973;28;20132;-62
2021/09/10 06:54:49;;;;;;;29.45;21.65;;;;;;;;;;5024461;28;20271;-62
2021/09/10 06:57:15;;;;;;;29.40;21.70;;;;;;;;;;5024147;28;20458;-62
2021/09/10 06:59:42;;;;;;;31.02;23.00;;;;;;;;;;5026419;28;20144;-62
2021/09/10 07:02:08;;;;;;;34.15;24.50;;;;;;;;;;5019986;28;20080;-62
2021/09/10 07:04:35;;;;;;;33.13;24.70;;;;;;;;;;5026895;28;20115;-62
2021/09/10 07:07:02;;;;;;;37.90;26.55;;;;;;;;;;5021001;28;20133;-62
2021/09/10 07:09:29;;;;;;;30.48;22.10;;;;;;;;;;5008741;28;20102;-62
2021/09/10 07:11:56;;;;;;;30.48;21.10;;;;;;;;;;5022316;28;20088;-62
2021/09/10 07:14:22;;;;;;;29.10;21.73;;;;;;;;;;5021268;28;20052;-62
2021/09/10 07:16:48;;;;;;;29.48;21.73;;;;;;;;;;5014999;28;20124;-62
2021/09/10 07:19:15;;;;;;;31.10;23.20;;;;;;;;;;5027276;28;20170;-62
2021/09/10 07:21:42;;;;;;;30.67;23.70;;;;;;;;;;5026724;28;20041;-62
2021/09/10 07:24:09;;;;;;;35.17;25.80;;;;;;;;;;5022670;28;20128;-62
2021/09/10 07:26:35;;;;;;;29.00;22.95;;;;;;;;;;5024430;28;20125;-62
2021/09/10 07:29:02;;;;;;;35.22;23.92;;;;;;;;;;5022663;28;20128;-62
2021/09/10 07:31:28;;;;;;;32.13;25.00;;;;;;;;;;5019093;28;20050;-62
2021/09/10 07:33:55;;;;;;;34.17;26.37;;;;;;;;;;5019019;28;20510;-62
2021/09/10 07:36:22;;;;;;;44.92;30.15;;;;;;;;;;5020404;28;20586;-62
2021/09/10 07:38:48;;;;;;;35.25;26.95;;;;;;;;;;5024932;28;20049;-62
2021/09/10 07:41:15;;;;;;;29.77;24.23;;;;;;;;;;5024381;28;20560;-62
2021/09/10 07:43:42;;;;;;;32.58;22.27;;;;;;;;;;5023137;28;20136;-62
2021/09/10 07:46:08;;;;;;;30.75;22.33;;;;;;;;;;5023312;28;20494;-62
2021/09/10 07:48:35;;;;;;;29.45;22.65;;;;;;;;;;5023085;28;20050;-62
2021/09/10 07:51:02;;;;;;;27.47;22.50;;;;;;;;;;5018810;28;20120;-62
2021/09/10 07:53:28;;;;;;;26.90;21.73;;;;;;;;;;5024257;28;20421;-62
2021/09/10 07:55:55;;;;;;;32.25;22.08;;;;;;;;;;5021004;28;20042;-62
2021/09/10 07:58:22;;;;;;;29.45;22.05;;;;;;;;;;5017979;28;20140;-62
2021/09/10 08:00:48;;;;;;;26.90;20.58;;;;;;;;;;5019300;28;20565;-62
2021/09/10 08:03:15;;;;;;;22.97;19.37;;;;;;;;;;5020398;28;20076;-63
2021/09/10 08:05:42;;;;;;;25.90;19.63;;;;;;;;;;5028508;28;20041;-62
2021/09/10 08:08:09;;;;;;;24.45;19.90;;;;;;;;;;5023050;28;20084;-63
2021/09/10 08:10:35;;;;;;;27.80;19.02;;;;;;;;;;5021121;28;20082;-62
2021/09/10 08:13:02;;;;;;;23.67;18.00;;;;;;;;;;5022118;28;20404;-62
2021/09/10 08:15:28;;;;;;;23.35;17.88;;;;;;;;;;5021740;28;20138;-62
2021/09/10 08:17:55;;;;;;;18.83;16.77;;;;;;;;;;5018732;28;20115;-62
2021/09/10 08:20:25;;;;;;;17.70;15.32;;;;;;;;;;5024103;28;20479;-62
2021/09/10 08:22:51;;;;;;;21.45;16.23;;;;;;;;;;5025967;28;20059;-62
2021/09/10 08:25:21;;;;;;;18.90;15.50;;;;;;;;;;5017536;28;20092;-62
2021/09/10 08:27:47;;;;;;;19.27;15.63;;;;;;;;;;5027738;28;20524;-62
2021/09/10 08:30:14;;;;;;;23.35;16.23;;;;;;;;;;5021183;28;20164;-62
2021/09/10 08:32:41;;;;;;;21.55;14.98;;;;;;;;;;5021784;28;20075;-62
2021/09/10 08:35:08;;;;;;;18.17;15.30;;;;;;;;;;5017110;28;20132;-62
2021/09/10 08:37:34;;;;;;;23.50;14.27;;;;;;;;;;5017534;28;20085;-62
2021/09/10 08:40:02;;;;;;;21.10;15.38;;;;;;;;;;5016976;28;20124;-62
2021/09/10 08:42:29;;;;;;;25.08;14.75;;;;;;;;;;5022045;28;20070;-62
2021/09/10 08:44:55;;;;;;;18.58;13.57;;;;;;;;;;5024831;28;20045;-62
2021/09/10 08:47:22;;;;;;;19.13;14.30;;;;;;;;;;5022083;28;20146;-62
2021/09/10 08:49:49;;;;;;;20.30;13.85;;;;;;;;;;5022013;28;20540;-62
2021/09/10 08:52:15;;;;;;;17.10;13.50;;;;;;;;;;5021930;28;20140;-62
2021/09/10 08:54:42;;;;;;;18.00;13.95;;;;;;;;;;5022623;28;20409;-62
2021/09/10 08:57:09;;;;;;;17.55;13.23;;;;;;;;;;5021813;28;20081;-63
2021/09/10 08:59:35;;;;;;;18.33;13.10;;;;;;;;;;5016671;28;20501;-62
2021/09/10 09:02:02;;;;;;;15.13;12.53;;;;;;;;;;5019640;28;20215;-62
2021/09/10 09:04:33;;;;;;;21.80;13.32;;;;;;;;;;5018263;28;20046;-62
2021/09/10 09:07:01;;;;;;;18.08;13.20;;;;;;;;;;5019263;28;20069;-62
2021/09/10 09:09:40;;;;;;;20.38;13.98;;;;;;;;;;5017097;28;20077;-62
2021/09/10 09:12:10;;;;;;;17.20;13.38;;;;;;;;;;5018826;28;20089;-62
2021/09/10 09:14:48;;;;;;;17.98;12.48;;;;;;;;;;5021924;28;20099;-62
2021/09/10 09:17:37;;;;;;;23.00;13.77;;;;;;;;;;5019023;28;20137;-62
2021/09/10 09:20:13;;;;;;;23.50;13.00;;;;;;;;;;5005694;28;20817;-62
2021/09/10 09:22:58;;;;;;;20.00;12.43;;;;;;;;;;5018263;28;20085;-62
2021/09/10 09:25:31;;;;;;;22.73;12.23;;;;;;;;;;5017551;28;20088;-62
2021/09/10 09:28:17;;;;;;;15.77;12.13;;;;;;;;;;5021071;28;20552;-62
2021/09/10 09:30:44;;;;;;;23.52;12.38;;;;;;;;;;5022374;28;20054;-63
2021/09/10 09:33:13;;;;;;;15.15;11.40;;;;;;;;;;5017463;28;20050;-63
2021/09/10 09:35:41;;;;;;;17.73;12.40;;;;;;;;;;5022201;28;20136;-62
2021/09/10 09:38:12;;;;;;;16.33;11.95;;;;;;;;;;5021563;28;20129;-62
2021/09/10 09:40:38;;;;;;;17.42;12.60;;;;;;;;;;5023972;28;20480;-62
2021/09/10 09:43:16;;;;;;;16.67;12.00;;;;;;;;;;5027604;28;20140;-63
2021/09/10 09:45:44;;;;;;;17.13;11.55;;;;;;;;;;5018537;28;20479;-62
2021/09/10 09:48:11;;;;;;;15.60;11.65;;;;;;;;;;5024356;28;20406;-63
2021/09/10 09:50:39;;;;;;;17.60;11.02;;;;;;;;;;5016143;28;20505;-63
2021/09/10 09:53:06;;;;;;;13.45;11.20;;;;;;;;;;5021802;28;20096;-63
2021/09/10 09:55:33;;;;;;;19.43;11.23;;;;;;;;;;5025835;28;20141;-63
2021/09/10 09:58:02;;;;;;;17.27;11.75;;;;;;;;;;5021646;28;20336;-63
2021/09/10 10:00:29;;;;;;;16.05;11.13;;;;;;;;;;5023819;28;20133;-63
2021/09/10 10:02:56;;;;;;;12.40;9.77;;;;;;;;;;5018094;28;20521;-62
2021/09/10 10:05:23;;;;;;;;;;;;;;;;;;5018766;28;20053;-63
2021/09/10 10:07:56;;;;;;;15.88;11.25;;;;;;;;;;5025740;28;20019;-63
2021/09/10 10:10:25;;;;;;;12.60;9.95;;;;;;;;;;5023932;28;20060;-63
2021/09/10 10:12:53;;;;;;;13.23;10.27;;;;;;;;;;5008873;28;20249;-63
2021/09/10 10:15:22;;;;;;;13.10;9.57;;;;;;;;;;5030120;28;20132;-63
2021/09/10 10:17:48;;;;;;;16.17;10.13;;;;;;;;;;5018803;28;20230;-63
2021/09/10 10:20:33;;;;;;;14.15;9.50;;;;;;;;;;5030028;28;20045;-63
2021/09/10 10:23:00;;;;;;;12.13;9.07;;;;;;;;;;5025030;28;20049;-63
2021/09/10 10:25:27;;;;;;;18.98;10.18;;;;;;;;;;5023304;28;20144;-63
2021/09/10 10:27:54;;;;;;;11.45;8.80;;;;;;;;;;5024731;28;20056;-62
2021/09/10 10:30:21;;;;;;;14.15;10.32;;;;;;;;;;5020465;28;20047;-62
2021/09/10 10:32:47;;;;;;;;;;;;;;;;;;5020555;28;20132;-63
2021/09/10 10:35:18;;;;;;;11.75;9.10;;;;;;;;;;5026341;28;19975;-63
2021/09/10 10:37:46;;;;;;;11.73;8.80;;;;;;;;;;5027355;28;20077;-62
2021/09/10 10:40:27;;;;;;;16.15;9.10;;;;;;;;;;5025828;28;20054;-63
2021/09/10 10:43:05;;;;;;;12.27;8.70;;;;;;;;;;5026009;28;20137;-63
2021/09/10 10:45:44;;;;;;;14.63;8.73;;;;;;;;;;5016661;28;20053;-63
2021/09/10 10:48:29;;;;;;;14.38;9.13;;;;;;;;;;5024885;28;20054;-63
2021/09/10 10:50:58;;;;;;;13.75;8.68;;;;;;;;;;5020012;28;20406;-63
2021/09/10 10:53:24;;;;;;;;;;;;;;;;;;5026118;28;20140;-63
2021/09/10 10:55:51;;;;;;;11.35;8.02;;;;;;;;;;5025218;28;20064;-62
2021/09/10 10:58:27;;;;;;;13.68;8.48;;;;;;;;;;5014796;28;20136;-63
2021/09/10 11:01:01;;;;;;;10.20;8.18;;;;;;;;;;5017803;28;20049;-62
2021/09/10 11:03:28;;;;;;;10.30;7.60;;;;;;;;;;5023845;28;20072;-63
2021/09/10 11:05:57;;;;;;;14.13;7.43;;;;;;;;;;5022179;28;20139;-63
2021/09/10 11:08:44;;;;;;;13.18;8.35;;;;;;;;;;5022270;28;20296;-62
2021/09/10 11:11:11;;;;;;;15.75;8.35;;;;;;;;;;5021727;28;20136;-63
2021/09/10 11:13:41;;;;;;;18.55;8.63;;;;;;;;;;5017821;28;20075;-63
2021/09/10 11:16:09;;;;;;;12.00;7.60;;;;;;;;;;5022592;28;20081;-62
2021/09/10 11:18:37;;;;;;;13.27;8.00;;;;;;;;;;5021874;28;20409;-63
2021/09/10 11:21:04;;;;;;;11.93;7.97;;;;;;;;;;5016973;28;20085;-63
2021/09/10 11:23:32;;;;;;;12.25;7.57;;;;;;;;;;5028762;28;20065;-63
2021/09/10 11:26:00;;;;;;;10.98;7.80;;;;;;;;;;5017977;28;20060;-63
2021/09/10 11:28:30;;;;;;;15.23;8.20;;;;;;;;;;5021230;28;20137;-63
2021/09/10 11:30:57;;;;;;;9.45;7.53;;;;;;;;;;5024055;28;20048;-63
2021/09/10 11:33:24;;;;;;;9.93;7.75;;;;;;;;;;5023974;28;20049;-63
2021/09/10 11:35:51;;;;;;;10.00;7.60;;;;;;;;;;5024119;28;20104;-63
2021/09/10 11:38:20;;;;;;;9.88;7.75;;;;;;;;;;5017367;28;20141;-62
2021/09/10 11:40:48;;;;;;;14.20;7.35;;;;;;;;;;5017625;28;20099;-63
2021/09/10 11:43:17;;;;;;;14.70;7.30;;;;;;;;;;5023285;28;20085;-63
2021/09/10 11:45:44;;;;;;;12.85;7.63;;;;;;;;;;5021961;28;20073;-63
2021/09/10 11:48:12;;;;;;;11.98;7.18;;;;;;;;;;5021377;28;20152;-63
2021/09/10 11:50:38;;;;;;;;;;;;;;;;;;5025454;28;20049;-62
2021/09/10 11:53:11;;;;;;;12.77;7.60;;;;;;;;;;5019055;28;19980;-62
2021/09/10 11:55:38;;;;;;;11.02;7.60;;;;;;;;;;5019680;28;20053;-62
2021/09/10 11:58:11;;;;;;;8.85;7.63;;;;;;;;;;5021019;28;20597;-62
2021/09/10 12:00:38;;;;;;;14.05;7.55;;;;;;;;;;5021897;28;20148;-63
2021/09/10 12:03:07;;;;;;;11.25;6.60;;;;;;;;;;5024301;28;20159;-63
2021/09/10 12:05:33;;;;;;;11.05;6.95;;;;;;;;;;5015589;28;20100;-62
2021/09/10 12:08:00;;;;;;;8.93;7.43;;;;;;;;;;5016207;28;20054;-63
2021/09/10 12:10:34;;;;;;;10.45;7.20;;;;;;;;;;5021987;28;20124;-63
2021/09/10 12:13:10;;;;;;;9.43;6.97;;;;;;;;;;5019319;28;20420;-63
2021/09/10 12:15:38;;;;;;;12.52;7.47;;;;;;;;;;5023068;28;20136;-63
2021/09/10 12:18:10;;;;;;;10.85;7.43;;;;;;;;;;5019335;28;20049;-62
2021/09/10 12:20:40;;;;;;;12.68;7.05;;;;;;;;;;5011926;28;20077;-62
2021/09/10 12:23:06;;;;;;;12.57;8.00;;;;;;;;;;5019294;28;20129;-62
2021/09/10 12:25:41;;;;;;;12.40;7.45;;;;;;;;;;5018059;28;20145;-63
2021/09/10 12:28:09;;;;;;;15.13;7.70;;;;;;;;;;5021395;28;20082;-62
2021/09/10 12:30:35;;;;;;;;;;;;;;;;;;5021986;28;20055;-62
2021/09/10 12:33:03;;;;;;;15.40;7.75;;;;;;;;;;5015728;28;20391;-62
2021/09/10 12:35:30;;;;;;;10.77;7.50;;;;;;;;;;5012431;28;20497;-63
2021/09/10 12:37:58;;;;;;;12.73;7.93;;;;;;;;;;5015078;28;20048;-63
2021/09/10 12:40:25;;;;;;;12.30;7.70;;;;;;;;;;5017315;28;20523;-63
2021/09/10 12:42:52;;;;;;;10.27;7.40;;;;;;;;;;5024226;28;20132;-63
2021/09/10 12:45:18;;;;;;;9.45;7.85;;;;;;;;;;5020763;28;20089;-63
2021/09/10 12:47:45;;;;;;;11.87;8.47;;;;;;;;;;5015652;28;20089;-62
2021/09/10 12:50:11;;;;;;;13.20;8.15;;;;;;;;;;5017070;28;20136;-63
2021/09/10 12:52:38;;;;;;;10.53;7.30;;;;;;;;;;5018474;28;20510;-63
2021/09/10 12:55:05;;;;;;;17.20;8.02;;;;;;;;;;5018224;28;20081;-63
2021/09/10 12:57:33;;;;;;;13.55;7.80;;;;;;;;;;5022875;28;20050;-63
2021/09/10 12:59:59;;;;;;;12.48;8.30;;;;;;;;;;5020613;28;20061;-63
2021/09/10 13:02:26;;;;;;;9.25;7.22;;;;;;;;;;5025175;28;20155;-63
2021/09/10 13:04:53;;;;;;;;;;;;;;;;;;5026179;28;20565;-64
2021/09/10 13:07:19;;;;;;;10.65;7.57;;;;;;;;;;5023180;28;20349;-62
2021/09/10 13:09:49;;;;;;;13.23;7.63;;;;;;;;;;5024530;28;20119;-63
2021/09/10 13:12:16;;;;;;;16.65;7.53;;;;;;;;;;5025263;28;20283;-63
2021/09/10 13:14:49;;;;;;;11.23;7.60;;;;;;;;;;5015885;28;20080;-63
2021/09/10 13:17:16;;;;;;;10.13;7.70;;;;;;;;;;5019251;28;20501;-63
2021/09/10 13:19:42;;;;;;;11.80;7.75;;;;;;;;;;5018014;28;20134;-63
2021/09/10 13:22:09;;;;;;;11.05;8.07;;;;;;;;;;5021615;28;20140;-63
2021/09/10 13:24:36;;;;;;;11.35;8.15;;;;;;;;;;5021164;28;20076;-63
2021/09/10 13:27:02;;;;;;;10.05;7.57;;;;;;;;;;5024939;28;20808;-63
2021/09/10 13:29:29;;;;;;;10.23;7.90;;;;;;;;;;5014562;28;20469;-63
2021/09/10 13:31:55;;;;;;;10.73;7.47;;;;;;;;;;5022259;28;20085;-63
2021/09/10 13:34:25;;;;;;;10.25;8.35;;;;;;;;;;5021244;28;20307;-63
2021/09/10 13:36:51;;;;;;;10.95;7.90;;;;;;;;;;5020270;28;20133;-63
2021/09/10 13:39:20;;;;;;;11.32;7.90;;;;;;;;;;5016617;28;20053;-63
2021/09/10 13:41:47;;;;;;;;;;;;;;;;;;5017504;28;20136;-63
2021/09/10 13:44:14;;;;;;;8.82;7.57;;;;;;;;;;5015057;28;20040;-63
2021/09/10 13:46:40;;;;;;;15.13;8.32;;;;;;;;;;5022153;28;20162;-63
2021/09/10 13:49:08;;;;;;;12.48;7.90;;;;;;;;;;5019989;28;20144;-63
2021/09/10 13:51:34;;;;;;;17.38;8.00;;;;;;;;;;5023039;28;20137;-63
2021/09/10 13:54:01;;;;;;;13.88;8.23;;;;;;;;;;5021550;28;20144;-63
2021/09/10 13:56:28;;;;;;;13.43;7.68;;;;;;;;;;5011224;28;20505;-63
2021/09/10 13:58:55;;;;;;;12.95;8.07;;;;;;;;;;5012586;28;20136;-63
2021/09/10 14:01:21;;;;;;;10.85;7.63;;;;;;;;;;5019466;28;20137;-63
2021/09/10 14:03:49;;;;;;;15.32;8.15;;;;;;;;;;5018747;28;20092;-63
2021/09/10 14:06:16;;;;;;;10.32;7.97;;;;;;;;;;5021325;28;20567;-63
2021/09/10 14:08:42;;;;;;;10.77;8.88;;;;;;;;;;5013268;28;20998;-63
2021/09/10 14:11:10;;;;;;;15.30;8.50;;;;;;;;;;5016001;28;20099;-63
2021/09/10 14:13:36;;;;;;;10.38;8.32;;;;;;;;;;5015393;28;20046;-63
2021/09/10 14:16:03;;;;;;;11.57;8.53;;;;;;;;;;5020208;28;20148;-63
2021/09/10 14:18:31;;;;;;;14.93;8.63;;;;;;;;;;5021528;28;20181;-63
2021/09/10 14:20:58;;;;;;;13.27;8.20;;;;;;;;;;5027481;28;20060;-63
2021/09/10 14:23:24;;;;;;;12.43;8.37;;;;;;;;;;5016370;28;20085;-63
2021/09/10 14:25:51;;;;;;;10.20;8.23;;;;;;;;;;5028791;28;20753;-63